sensor_id;sensor_type;location;lat;lon;timestamp;pressure;altitude;pressure_sealevel;temperature;humidity
11053;BME280;55230;42.602;23.470;2024-03-17T00:02:20;93756.06;;;4.39;85.16
11053;BME280;55230;42.602;23.470;2024-03-17T00:04:45;93756.09;;;4.48;86.45
11053;BME280;55230;42.602;23.470;2024-03-17T00:07:14;93758.38;;;4.49;84.66
11053;BME280;55230;42.602;23.470;2024-03-17T00:09:40;93752.31;;;4.54;85.47
11053;BME280;55230;42.602;23.470;2024-03-17T00:12:06;93756.69;;;4.53;86.28
11053;BME280;55230;42.602;23.470;2024-03-17T00:14:33;93749.13;;;4.40;86.79
11053;BME280;55230;42.602;23.470;2024-03-17T00:17:00;93757.75;;;4.52;86.48
11053;BME280;55230;42.602;23.470;2024-03-17T00:19:25;93755.50;;;4.51;86.85
11053;BME280;55230;42.602;23.470;2024-03-17T00:21:51;93747.66;;;4.56;85.86
11053;BME280;55230;42.602;23.470;2024-03-17T00:24:17;93750.22;;;4.56;85.42
11053;BME280;55230;42.602;23.470;2024-03-17T00:26:42;93744.38;;;4.64;84.73
11053;BME280;55230;42.602;23.470;2024-03-17T00:29:08;93749.31;;;4.69;83.93
11053;BME280;55230;42.602;23.470;2024-03-17T00:31:33;93749.00;;;4.45;86.59
11053;BME280;55230;42.602;23.470;2024-03-17T00:33:59;93750.66;;;4.41;85.18
11053;BME280;55230;42.602;23.470;2024-03-17T00:36:24;93749.88;;;4.32;85.06
11053;BME280;55230;42.602;23.470;2024-03-17T00:38:50;93746.09;;;4.29;85.02
11053;BME280;55230;42.602;23.470;2024-03-17T00:41:17;93752.28;;;4.28;86.88
11053;BME280;55230;42.602;23.470;2024-03-17T00:43:42;93744.41;;;4.16;86.03
11053;BME280;55230;42.602;23.470;2024-03-17T00:46:08;93743.19;;;4.13;85.91
11053;BME280;55230;42.602;23.470;2024-03-17T00:48:33;93741.22;;;4.10;86.11
11053;BME280;55230;42.602;23.470;2024-03-17T00:50:59;93736.41;;;4.09;86.81
11053;BME280;55230;42.602;23.470;2024-03-17T00:53:25;93741.06;;;4.07;85.92
11053;BME280;55230;42.602;23.470;2024-03-17T00:55:54;93744.50;;;4.02;87.40
11053;BME280;55230;42.602;23.470;2024-03-17T00:58:23;93741.03;;;3.98;88.14
11053;BME280;55230;42.602;23.470;2024-03-17T01:00:49;93745.13;;;3.68;89.86
11053;BME280;55230;42.602;23.470;2024-03-17T01:03:15;93742.88;;;3.67;89.71
11053;BME280;55230;42.602;23.470;2024-03-17T01:05:41;93735.22;;;3.75;88.61
11053;BME280;55230;42.602;23.470;2024-03-17T01:08:08;93737.09;;;3.61;89.50
11053;BME280;55230;42.602;23.470;2024-03-17T01:10:37;93740.16;;;3.72;88.28
11053;BME280;55230;42.602;23.470;2024-03-17T01:13:04;93746.47;;;3.66;89.43
11053;BME280;55230;42.602;23.470;2024-03-17T01:15:30;93736.09;;;3.71;88.24
11053;BME280;55230;42.602;23.470;2024-03-17T01:17:55;93744.19;;;3.64;89.95
11053;BME280;55230;42.602;23.470;2024-03-17T01:20:20;93734.84;;;3.60;89.82
11053;BME280;55230;42.602;23.470;2024-03-17T01:22:46;93735.84;;;3.50;90.10
11053;BME280;55230;42.602;23.470;2024-03-17T01:25:12;93740.06;;;3.55;90.09
11053;BME280;55230;42.602;23.470;2024-03-17T01:27:37;93744.63;;;3.58;90.38
11053;BME280;55230;42.602;23.470;2024-03-17T01:30:03;93740.03;;;3.46;89.96
11053;BME280;55230;42.602;23.470;2024-03-17T01:32:29;93742.78;;;3.49;89.56
11053;BME280;55230;42.602;23.470;2024-03-17T01:34:55;93739.47;;;3.49;90.76
11053;BME280;55230;42.602;23.470;2024-03-17T01:37:20;93744.88;;;3.47;90.54
11053;BME280;55230;42.602;23.470;2024-03-17T01:39:45;93743.53;;;3.50;91.14
11053;BME280;55230;42.602;23.470;2024-03-17T01:42:11;93740.69;;;3.52;90.34
11053;BME280;55230;42.602;23.470;2024-03-17T01:44:36;93742.63;;;3.55;90.18
11053;BME280;55230;42.602;23.470;2024-03-17T01:47:01;93742.16;;;3.53;90.29
11053;BME280;55230;42.602;23.470;2024-03-17T01:49:28;93743.81;;;3.48;90.04
11053;BME280;55230;42.602;23.470;2024-03-17T01:51:55;93738.25;;;3.46;89.35
11053;BME280;55230;42.602;23.470;2024-03-17T01:54:21;93738.25;;;3.46;89.92
11053;BME280;55230;42.602;23.470;2024-03-17T01:56:47;93742.03;;;3.49;90.33
11053;BME280;55230;42.602;23.470;2024-03-17T01:59:13;93740.78;;;3.46;89.77
11053;BME280;55230;42.602;23.470;2024-03-17T02:01:39;93739.28;;;3.45;91.05
11053;BME280;55230;42.602;23.470;2024-03-17T02:04:06;93741.38;;;3.43;91.28
11053;BME280;55230;42.602;23.470;2024-03-17T02:06:32;93739.88;;;3.42;91.08
11053;BME280;55230;42.602;23.470;2024-03-17T02:08:57;93737.78;;;3.44;91.01
11053;BME280;55230;42.602;23.470;2024-03-17T02:11:25;93738.25;;;3.46;90.56
11053;BME280;55230;42.602;23.470;2024-03-17T02:13:52;93743.81;;;3.48;90.60
11053;BME280;55230;42.602;23.470;2024-03-17T02:16:17;93737.66;;;3.49;90.45
11053;BME280;55230;42.602;23.470;2024-03-17T02:18:44;93741.59;;;3.56;89.79
11053;BME280;55230;42.602;23.470;2024-03-17T02:21:09;93742.41;;;3.42;90.67
11053;BME280;55230;42.602;23.470;2024-03-17T02:23:35;93744.22;;;3.42;89.86
11053;BME280;55230;42.602;23.470;2024-03-17T02:26:00;93747.72;;;3.24;90.84
11053;BME280;55230;42.602;23.470;2024-03-17T02:28:25;93739.81;;;3.34;91.45
11053;BME280;55230;42.602;23.470;2024-03-17T02:30:51;93741.78;;;3.37;90.46
11053;BME280;55230;42.602;23.470;2024-03-17T02:33:16;93734.09;;;3.37;90.21
11053;BME280;55230;42.602;23.470;2024-03-17T02:35:42;93743.66;;;3.23;91.31
11053;BME280;55230;42.602;23.470;2024-03-17T02:38:09;93740.22;;;3.27;91.59
11053;BME280;55230;42.602;23.470;2024-03-17T02:40:37;93736.25;;;3.21;90.87
11053;BME280;55230;42.602;23.470;2024-03-17T02:43:02;93736.25;;;3.21;90.94
11053;BME280;55230;42.602;23.470;2024-03-17T02:45:27;93730.69;;;3.19;90.88
11053;BME280;55230;42.602;23.470;2024-03-17T02:47:54;93733.56;;;3.18;90.79
11053;BME280;55230;42.602;23.470;2024-03-17T02:50:20;93728.84;;;3.11;92.00
11053;BME280;55230;42.602;23.470;2024-03-17T02:52:45;93737.84;;;3.08;91.99
11053;BME280;55230;42.602;23.470;2024-03-17T02:55:11;93734.06;;;3.06;91.98
11053;BME280;55230;42.602;23.470;2024-03-17T02:57:37;93737.03;;;2.99;91.69
11053;BME280;55230;42.602;23.470;2024-03-17T03:00:03;93737.31;;;2.98;91.78
11053;BME280;55230;42.602;23.470;2024-03-17T03:02:33;93729.19;;;2.96;91.74
11053;BME280;55230;42.602;23.470;2024-03-17T03:04:58;93730.69;;;2.97;92.93
11053;BME280;55230;42.602;23.470;2024-03-17T03:07:24;93732.41;;;3.01;92.85
11053;BME280;55230;42.602;23.470;2024-03-17T03:09:50;93727.09;;;2.98;93.05
11053;BME280;55230;42.602;23.470;2024-03-17T03:12:16;93723.97;;;3.01;93.08
11053;BME280;55230;42.602;23.470;2024-03-17T03:14:41;93721.22;;;2.97;92.04
11053;BME280;55230;42.602;23.470;2024-03-17T03:17:07;93729.53;;;3.03;91.92
11053;BME280;55230;42.602;23.470;2024-03-17T03:19:32;93727.63;;;3.08;91.83
11053;BME280;55230;42.602;23.470;2024-03-17T03:21:57;93725.63;;;3.05;92.33
11053;BME280;55230;42.602;23.470;2024-03-17T03:24:23;93725.63;;;3.05;91.84
11053;BME280;55230;42.602;23.470;2024-03-17T03:26:48;93728.19;;;3.05;91.23
11053;BME280;55230;42.602;23.470;2024-03-17T03:29:13;93730.56;;;3.02;92.43
11053;BME280;55230;42.602;23.470;2024-03-17T03:31:42;93732.72;;;2.86;92.82
11053;BME280;55230;42.602;23.470;2024-03-17T03:34:07;93737.72;;;2.91;93.53
11053;BME280;55230;42.602;23.470;2024-03-17T03:36:34;93728.25;;;2.92;92.77
11053;BME280;55230;42.602;23.470;2024-03-17T03:39:01;93730.81;;;2.92;92.52
11053;BME280;55230;42.602;23.470;2024-03-17T03:41:29;93735.56;;;2.85;92.24
11053;BME280;55230;42.602;23.470;2024-03-17T03:43:55;93730.91;;;2.87;93.11
11053;BME280;55230;42.602;23.470;2024-03-17T03:46:20;93740.84;;;2.88;92.92
11053;BME280;55230;42.602;23.470;2024-03-17T03:48:45;93742.63;;;2.88;92.72
11053;BME280;55230;42.602;23.470;2024-03-17T03:51:11;93749.06;;;2.85;93.28
11053;BME280;55230;42.602;23.470;2024-03-17T03:53:36;93748.34;;;2.85;93.12
11053;BME280;55230;42.602;23.470;2024-03-17T03:56:04;93746.38;;;2.82;92.53
11053;BME280;55230;42.602;23.470;2024-03-17T03:58:34;93752.63;;;2.75;92.60
11053;BME280;55230;42.602;23.470;2024-03-17T04:01:03;93750.44;;;2.69;93.45
11053;BME280;55230;42.602;23.470;2024-03-17T04:03:29;93753.13;;;2.64;93.15
11053;BME280;55230;42.602;23.470;2024-03-17T04:06:04;93755.22;;;2.62;93.33
11053;BME280;55230;42.602;23.470;2024-03-17T04:08:31;93747.66;;;2.57;93.42
11053;BME280;55230;42.602;23.470;2024-03-17T04:10:57;93753.03;;;2.55;93.34
11053;BME280;55230;42.602;23.470;2024-03-17T04:13:22;93757.56;;;2.58;94.26
11053;BME280;55230;42.602;23.470;2024-03-17T04:15:48;93762.22;;;2.56;93.40
11053;BME280;55230;42.602;23.470;2024-03-17T04:18:13;93758.25;;;2.50;94.30
11053;BME280;55230;42.602;23.470;2024-03-17T04:20:41;93766.22;;;2.49;94.79
11053;BME280;55230;42.602;23.470;2024-03-17T04:23:06;93773.28;;;2.52;95.18
11053;BME280;55230;42.602;23.470;2024-03-17T04:25:32;93773.94;;;2.57;94.66
11053;BME280;55230;42.602;23.470;2024-03-17T04:27:57;93781.03;;;2.60;94.53
11053;BME280;55230;42.602;23.470;2024-03-17T04:30:23;93782.66;;;2.56;94.73
11053;BME280;55230;42.602;23.470;2024-03-17T04:32:48;93775.66;;;2.62;94.01
11053;BME280;55230;42.602;23.470;2024-03-17T04:35:14;93787.41;;;2.49;95.29
11053;BME280;55230;42.602;23.470;2024-03-17T04:37:39;93793.34;;;2.58;94.20
11053;BME280;55230;42.602;23.470;2024-03-17T04:40:06;93793.63;;;2.57;94.54
11053;BME280;55230;42.602;23.470;2024-03-17T04:42:35;93795.31;;;2.61;93.99
11053;BME280;55230;42.602;23.470;2024-03-17T04:45:00;93798.91;;;2.60;93.67
11053;BME280;55230;42.602;23.470;2024-03-17T04:47:25;93796.44;;;2.69;93.52
11053;BME280;55230;42.602;23.470;2024-03-17T04:49:51;93790.28;;;2.70;94.32
11053;BME280;55230;42.602;23.470;2024-03-17T04:52:16;93797.59;;;2.63;94.24
11053;BME280;55230;42.602;23.470;2024-03-17T04:54:42;93806.56;;;2.60;93.83
11053;BME280;55230;42.602;23.470;2024-03-17T04:57:15;93806.28;;;2.62;94.48
11053;BME280;55230;42.602;23.470;2024-03-17T04:59:40;93810.34;;;2.76;93.92
11053;BME280;55230;42.602;23.470;2024-03-17T05:02:05;93811.53;;;2.93;93.52
11053;BME280;55230;42.602;23.470;2024-03-17T05:04:31;93814.91;;;3.02;92.82
11053;BME280;55230;42.602;23.470;2024-03-17T05:06:56;93810.25;;;3.18;93.48
11053;BME280;55230;42.602;23.470;2024-03-17T05:09:22;93804.94;;;3.36;91.43
11053;BME280;55230;42.602;23.470;2024-03-17T05:11:50;93816.25;;;3.58;90.39
11053;BME280;55230;42.602;23.470;2024-03-17T05:14:16;93821.25;;;3.63;90.48
11053;BME280;55230;42.602;23.470;2024-03-17T05:16:43;93812.94;;;3.88;90.29
11053;BME280;55230;42.602;23.470;2024-03-17T05:19:08;93816.34;;;4.06;90.02
11053;BME280;55230;42.602;23.470;2024-03-17T05:21:34;93822.00;;;4.25;89.77
11053;BME280;55230;42.602;23.470;2024-03-17T05:24:01;93825.97;;;4.40;87.37
11053;BME280;55230;42.602;23.470;2024-03-17T05:26:27;93827.47;;;4.32;88.33
11053;BME280;55230;42.602;23.470;2024-03-17T05:28:53;93826.97;;;4.70;86.74
11053;BME280;55230;42.602;23.470;2024-03-17T05:31:19;93838.03;;;4.96;86.04
11053;BME280;55230;42.602;23.470;2024-03-17T05:33:47;93840.81;;;5.34;84.63
11053;BME280;55230;42.602;23.470;2024-03-17T05:36:12;93834.91;;;5.59;84.05
11053;BME280;55230;42.602;23.470;2024-03-17T05:38:37;93841.19;;;5.88;82.45
11053;BME280;55230;42.602;23.470;2024-03-17T05:41:05;93832.56;;;6.10;81.05
11053;BME280;55230;42.602;23.470;2024-03-17T05:43:32;93832.16;;;5.73;81.89
11053;BME280;55230;42.602;23.470;2024-03-17T05:46:10;93838.97;;;5.09;82.64
11053;BME280;55230;42.602;23.470;2024-03-17T05:48:40;93832.88;;;4.79;84.33
11053;BME280;55230;42.602;23.470;2024-03-17T05:51:10;93839.13;;;5.38;84.05
11053;BME280;55230;42.602;23.470;2024-03-17T05:53:37;93835.31;;;4.84;85.79
11053;BME280;55230;42.602;23.470;2024-03-17T05:56:05;93838.47;;;4.89;85.04
11053;BME280;55230;42.602;23.470;2024-03-17T05:58:33;93836.22;;;4.79;85.61
11053;BME280;55230;42.602;23.470;2024-03-17T06:01:02;93835.47;;;4.96;84.99
11053;BME280;55230;42.602;23.470;2024-03-17T06:03:27;93828.81;;;4.86;85.92
11053;BME280;55230;42.602;23.470;2024-03-17T06:05:53;93836.25;;;4.97;86.13
11053;BME280;55230;42.602;23.470;2024-03-17T06:08:19;93837.00;;;5.14;84.76
11053;BME280;55230;42.602;23.470;2024-03-17T06:10:46;93838.66;;;5.02;84.86
11053;BME280;55230;42.602;23.470;2024-03-17T06:13:12;93839.56;;;4.97;84.89
11053;BME280;55230;42.602;23.470;2024-03-17T06:15:39;93852.41;;;5.14;85.28
11053;BME280;55230;42.602;23.470;2024-03-17T06:18:05;93849.97;;;5.09;85.24
11053;BME280;55230;42.602;23.470;2024-03-17T06:20:34;93853.44;;;5.05;85.98
11053;BME280;55230;42.602;23.470;2024-03-17T06:22:59;93846.78;;;5.04;85.90
11053;BME280;55230;42.602;23.470;2024-03-17T06:25:25;93838.97;;;5.09;86.72
11053;BME280;55230;42.602;23.470;2024-03-17T06:27:51;93854.16;;;4.88;87.87
11053;BME280;55230;42.602;23.470;2024-03-17T06:30:17;93857.22;;;5.07;87.46
11053;BME280;55230;42.602;23.470;2024-03-17T06:32:43;93860.41;;;5.30;85.95
11053;BME280;55230;42.602;23.470;2024-03-17T06:35:13;93861.75;;;5.79;84.41
11053;BME280;55230;42.602;23.470;2024-03-17T06:37:46;93863.59;;;6.51;81.92
11053;BME280;55230;42.602;23.470;2024-03-17T06:40:13;93863.47;;;7.27;77.89
11053;BME280;55230;42.602;23.470;2024-03-17T06:42:39;93858.06;;;7.41;77.31
11053;BME280;55230;42.602;23.470;2024-03-17T06:45:05;93869.19;;;7.12;78.73
11053;BME280;55230;42.602;23.470;2024-03-17T06:47:33;93873.03;;;6.21;81.01
11053;BME280;55230;42.602;23.470;2024-03-17T06:49:58;93869.91;;;5.90;82.36
11053;BME280;55230;42.602;23.470;2024-03-17T06:52:24;93872.94;;;5.75;83.33
11053;BME280;55230;42.602;23.470;2024-03-17T06:54:49;93867.22;;;5.95;82.74
11053;BME280;55230;42.602;23.470;2024-03-17T06:57:15;93879.16;;;6.46;81.55
11053;BME280;55230;42.602;23.470;2024-03-17T06:59:41;93877.94;;;5.88;83.12
11053;BME280;55230;42.602;23.470;2024-03-17T07:02:07;93876.91;;;6.45;82.26
11053;BME280;55230;42.602;23.470;2024-03-17T07:04:32;93875.06;;;5.90;83.51
11053;BME280;55230;42.602;23.470;2024-03-17T07:06:57;93875.38;;;5.97;83.66
11053;BME280;55230;42.602;23.470;2024-03-17T07:09:23;93887.72;;;6.59;82.79
11053;BME280;55230;42.602;23.470;2024-03-17T07:11:49;93879.22;;;6.29;82.62
11053;BME280;55230;42.602;23.470;2024-03-17T07:14:14;93880.19;;;5.81;84.65
11053;BME280;55230;42.602;23.470;2024-03-17T07:16:40;93870.94;;;6.06;84.39
11053;BME280;55230;42.602;23.470;2024-03-17T07:19:05;93865.41;;;6.42;82.71
11053;BME280;55230;42.602;23.470;2024-03-17T07:21:30;93873.38;;;7.38;80.85
11053;BME280;55230;42.602;23.470;2024-03-17T07:23:59;93864.16;;;7.16;79.00
11053;BME280;55230;42.602;23.470;2024-03-17T07:26:29;93858.75;;;7.09;79.93
11053;BME280;55230;42.602;23.470;2024-03-17T07:28:55;93865.31;;;7.68;76.70
11053;BME280;55230;42.602;23.470;2024-03-17T07:31:20;93867.75;;;7.23;79.02
11053;BME280;55230;42.602;23.470;2024-03-17T07:33:46;93853.56;;;7.17;80.02
11053;BME280;55230;42.602;23.470;2024-03-17T07:36:11;93872.78;;;7.20;79.76
11053;BME280;55230;42.602;23.470;2024-03-17T07:38:37;93868.00;;;6.80;82.34
11053;BME280;55230;42.602;23.470;2024-03-17T07:41:04;93869.31;;;7.16;80.90
11053;BME280;55230;42.602;23.470;2024-03-17T07:43:35;93876.81;;;7.50;80.22
11053;BME280;55230;42.602;23.470;2024-03-17T07:46:05;93864.84;;;7.25;80.57
11053;BME280;55230;42.602;23.470;2024-03-17T07:48:33;93875.78;;;7.43;80.15
11053;BME280;55230;42.602;23.470;2024-03-17T07:51:00;93887.91;;;6.92;81.59
11053;BME280;55230;42.602;23.470;2024-03-17T07:53:29;93875.03;;;7.84;77.72
11053;BME280;55230;42.602;23.470;2024-03-17T07:58:24;93874.13;;;7.80;78.70
11053;BME280;55230;42.602;23.470;2024-03-17T08:00:56;93874.25;;;8.04;79.18
11053;BME280;55230;42.602;23.470;2024-03-17T08:03:25;93878.06;;;7.98;77.45
11053;BME280;55230;42.602;23.470;2024-03-17T08:05:50;93868.03;;;8.17;76.27
11053;BME280;55230;42.602;23.470;2024-03-17T08:08:16;93872.44;;;8.17;77.84
11053;BME280;55230;42.602;23.470;2024-03-17T08:10:42;93865.25;;;7.89;77.48
11053;BME280;55230;42.602;23.470;2024-03-17T08:13:07;93868.06;;;8.29;78.67
11053;BME280;55230;42.602;23.470;2024-03-17T08:15:34;93872.91;;;9.40;72.39
11053;BME280;55230;42.602;23.470;2024-03-17T08:17:59;93857.38;;;8.52;75.88
11053;BME280;55230;42.602;23.470;2024-03-17T08:20:25;93862.66;;;8.80;74.51
11053;BME280;55230;42.602;23.470;2024-03-17T08:22:50;93873.38;;;8.57;75.95
11053;BME280;55230;42.602;23.470;2024-03-17T08:25:16;93870.25;;;8.39;75.08
11053;BME280;55230;42.602;23.470;2024-03-17T08:27:41;93867.31;;;8.29;76.84
11053;BME280;55230;42.602;23.470;2024-03-17T08:30:08;93866.09;;;8.84;73.96
11053;BME280;55230;42.602;23.470;2024-03-17T08:32:35;93863.19;;;8.61;75.05
11053;BME280;55230;42.602;23.470;2024-03-17T08:35:00;93852.78;;;8.69;75.18
11053;BME280;55230;42.602;23.470;2024-03-17T08:37:26;93861.38;;;8.86;74.10
11053;BME280;55230;42.602;23.470;2024-03-17T08:39:52;93853.41;;;9.55;73.84
11053;BME280;55230;42.602;23.470;2024-03-17T08:42:17;93855.09;;;8.38;75.23
11053;BME280;55230;42.602;23.470;2024-03-17T08:44:46;93862.44;;;9.09;74.38
11053;BME280;55230;42.602;23.470;2024-03-17T08:47:11;93856.84;;;8.58;75.93
11053;BME280;55230;42.602;23.470;2024-03-17T08:49:37;93853.09;;;9.04;73.84
11053;BME280;55230;42.602;23.470;2024-03-17T08:52:02;93850.75;;;9.79;69.43
11053;BME280;55230;42.602;23.470;2024-03-17T08:54:27;93848.34;;;9.06;70.82
11053;BME280;55230;42.602;23.470;2024-03-17T08:56:53;93853.31;;;8.63;74.14
11053;BME280;55230;42.602;23.470;2024-03-17T08:59:18;93851.69;;;8.83;71.03
11053;BME280;55230;42.602;23.470;2024-03-17T09:01:44;93842.56;;;8.97;70.91
11053;BME280;55230;42.602;23.470;2024-03-17T09:04:09;93839.25;;;8.85;71.67
11053;BME280;55230;42.602;23.470;2024-03-17T09:06:36;93848.44;;;9.62;69.61
11053;BME280;55230;42.602;23.470;2024-03-17T09:09:06;93833.84;;;9.82;68.56
11053;BME280;55230;42.602;23.470;2024-03-17T09:11:33;93836.31;;;9.78;68.39
11053;BME280;55230;42.602;23.470;2024-03-17T09:13:58;93842.91;;;10.04;66.24
11053;BME280;55230;42.602;23.470;2024-03-17T09:16:24;93846.59;;;9.91;66.15
11053;BME280;55230;42.602;23.470;2024-03-17T09:18:50;93836.53;;;9.73;68.08
11053;BME280;55230;42.602;23.470;2024-03-17T09:21:16;93844.34;;;9.61;67.09
11053;BME280;55230;42.602;23.470;2024-03-17T09:23:42;93843.00;;;9.52;68.56
11053;BME280;55230;42.602;23.470;2024-03-17T09:26:09;93834.16;;;9.80;66.97
11053;BME280;55230;42.602;23.470;2024-03-17T09:28:36;93824.91;;;9.79;66.03
11053;BME280;55230;42.602;23.470;2024-03-17T09:31:01;93824.84;;;9.92;66.09
11053;BME280;55230;42.602;23.470;2024-03-17T09:33:29;93829.19;;;10.31;64.88
11053;BME280;55230;42.602;23.470;2024-03-17T09:36:02;93833.78;;;10.54;62.92
11053;BME280;55230;42.602;23.470;2024-03-17T09:38:28;93822.50;;;10.30;63.36
11053;BME280;55230;42.602;23.470;2024-03-17T09:40:56;93823.25;;;10.62;62.90
11053;BME280;55230;42.602;23.470;2024-03-17T09:43:26;93821.00;;;10.45;61.39
11053;BME280;55230;42.602;23.470;2024-03-17T09:45:52;93813.78;;;11.01;59.33
11053;BME280;55230;42.602;23.470;2024-03-17T09:48:20;93806.59;;;11.68;56.44
11053;BME280;55230;42.602;23.470;2024-03-17T09:50:56;93807.88;;;11.20;56.15
11053;BME280;55230;42.602;23.470;2024-03-17T09:53:34;93799.47;;;11.07;55.21
11053;BME280;55230;42.602;23.470;2024-03-17T09:56:08;93811.47;;;10.80;52.91
11053;BME280;55230;42.602;23.470;2024-03-17T09:58:34;93803.41;;;11.01;51.92
11053;BME280;55230;42.602;23.470;2024-03-17T10:00:59;93807.53;;;11.41;55.76
11053;BME280;55230;42.602;23.470;2024-03-17T10:03:47;93810.34;;;11.51;55.10
11053;BME280;55230;42.602;23.470;2024-03-17T10:06:18;93813.78;;;11.01;49.91
11053;BME280;55230;42.602;23.470;2024-03-17T10:08:45;93805.91;;;11.33;48.95
11053;BME280;55230;42.602;23.470;2024-03-17T10:11:12;93808.34;;;10.91;50.59
11053;BME280;55230;42.602;23.470;2024-03-17T10:13:39;93805.06;;;11.09;51.74
11053;BME280;55230;42.602;23.470;2024-03-17T10:16:04;93809.78;;;11.42;53.51
11053;BME280;55230;42.602;23.470;2024-03-17T10:18:30;93808.44;;;11.87;50.77
11053;BME280;55230;42.602;23.470;2024-03-17T10:20:56;93809.41;;;11.79;50.47
11053;BME280;55230;42.602;23.470;2024-03-17T10:23:23;93811.97;;;11.60;46.85
11053;BME280;55230;42.602;23.470;2024-03-17T10:25:48;93811.69;;;12.26;47.46
11053;BME280;55230;42.602;23.470;2024-03-17T10:28:16;93808.00;;;12.27;45.70
11053;BME280;55230;42.602;23.470;2024-03-17T10:30:59;93806.03;;;12.92;46.02
11053;BME280;55230;42.602;23.470;2024-03-17T10:33:25;93808.19;;;12.38;45.52
11053;BME280;55230;42.602;23.470;2024-03-17T10:35:58;93804.22;;;12.21;43.78
11053;BME280;55230;42.602;23.470;2024-03-17T10:38:25;93810.63;;;12.04;43.92
11053;BME280;55230;42.602;23.470;2024-03-17T10:40:50;93804.19;;;12.67;42.58
11053;BME280;55230;42.602;23.470;2024-03-17T10:43:16;93800.72;;;12.59;44.76
11053;BME280;55230;42.602;23.470;2024-03-17T10:45:42;93803.28;;;12.10;42.81
11053;BME280;55230;42.602;23.470;2024-03-17T10:48:08;93798.78;;;12.07;43.17
11053;BME280;55230;42.602;23.470;2024-03-17T10:50:38;93795.09;;;12.53;44.90
11053;BME280;55230;42.602;23.470;2024-03-17T10:53:06;93797.94;;;12.22;45.00
11053;BME280;55230;42.602;23.470;2024-03-17T10:55:44;93799.81;;;12.48;43.82
11053;BME280;55230;42.602;23.470;2024-03-17T10:58:33;93806.56;;;12.52;43.28
11053;BME280;55230;42.602;23.470;2024-03-17T11:01:01;93798.84;;;12.33;43.15
11053;BME280;55230;42.602;23.470;2024-03-17T11:03:33;93795.31;;;12.45;43.70
11053;BME280;55230;42.602;23.470;2024-03-17T11:06:00;93788.31;;;12.98;42.34
11053;BME280;55230;42.602;23.470;2024-03-17T11:08:30;93786.09;;;13.23;42.47
11053;BME280;55230;42.602;23.470;2024-03-17T11:10:55;93782.56;;;13.12;42.41
11053;BME280;55230;42.602;23.470;2024-03-17T11:13:24;93792.34;;;12.96;43.52
11053;BME280;55230;42.602;23.470;2024-03-17T11:15:51;93779.16;;;13.08;44.46
11053;BME280;55230;42.602;23.470;2024-03-17T11:21:05;93775.91;;;12.35;45.63
11053;BME280;55230;42.602;23.470;2024-03-17T11:23:37;93779.38;;;12.96;46.40
11053;BME280;55230;42.602;23.470;2024-03-17T11:26:04;93771.91;;;12.64;46.07
11053;BME280;55230;42.602;23.470;2024-03-17T11:31:33;93772.97;;;12.14;47.07
11053;BME280;55230;42.602;23.470;2024-03-17T11:34:01;93773.00;;;12.40;47.91
11053;BME280;55230;42.602;23.470;2024-03-17T11:39:00;93773.47;;;13.25;46.02
11053;BME280;55230;42.602;23.470;2024-03-17T11:41:42;93770.03;;;13.17;44.11
11053;BME280;55230;42.602;23.470;2024-03-17T11:44:25;93767.91;;;13.23;43.96
11053;BME280;55230;42.602;23.470;2024-03-17T11:46:55;93764.09;;;12.64;44.87
11053;BME280;55230;42.602;23.470;2024-03-17T11:49:27;93763.38;;;12.41;44.72
11053;BME280;55230;42.602;23.470;2024-03-17T11:51:54;93758.44;;;13.11;44.64
11053;BME280;55230;42.602;23.470;2024-03-17T11:54:22;93755.56;;;12.90;45.49
11053;BME280;55230;42.602;23.470;2024-03-17T11:56:50;93753.97;;;12.82;43.44
11053;BME280;55230;42.602;23.470;2024-03-17T11:59:16;93760.38;;;12.88;44.41
11053;BME280;55230;42.602;23.470;2024-03-17T12:01:49;93748.06;;;12.58;45.81
11053;BME280;55230;42.602;23.470;2024-03-17T12:04:18;93752.34;;;12.70;45.27
11053;BME280;55230;42.602;23.470;2024-03-17T12:06:45;93747.69;;;12.56;45.71
11053;BME280;55230;42.602;23.470;2024-03-17T12:09:21;93752.16;;;12.59;46.20
11053;BME280;55230;42.602;23.470;2024-03-17T12:14:19;93749.81;;;12.02;47.75
11053;BME280;55230;42.602;23.470;2024-03-17T12:16:55;93745.94;;;12.15;48.03
11053;BME280;55230;42.602;23.470;2024-03-17T12:19:22;93750.88;;;12.23;49.01
11053;BME280;55230;42.602;23.470;2024-03-17T12:21:55;93740.19;;;12.51;48.61
11053;BME280;55230;42.602;23.470;2024-03-17T12:24:23;93746.34;;;12.40;48.14
11053;BME280;55230;42.602;23.470;2024-03-17T12:26:50;93752.75;;;12.23;48.60
11053;BME280;55230;42.602;23.470;2024-03-17T12:29:39;93738.66;;;12.24;48.98
11053;BME280;55230;42.602;23.470;2024-03-17T12:34:39;93735.50;;;12.11;48.83
11053;BME280;55230;42.602;23.470;2024-03-17T12:37:05;93745.09;;;12.56;48.07
11053;BME280;55230;42.602;23.470;2024-03-17T12:39:32;93744.72;;;12.09;48.10
11053;BME280;55230;42.602;23.470;2024-03-17T12:42:09;93739.25;;;12.37;47.63
11053;BME280;55230;42.602;23.470;2024-03-17T12:44:47;93733.59;;;12.08;47.18
11053;BME280;55230;42.602;23.470;2024-03-17T12:47:17;93732.50;;;12.32;47.37
11053;BME280;55230;42.602;23.470;2024-03-17T12:49:56;93730.09;;;12.20;48.52
11053;BME280;55230;42.602;23.470;2024-03-17T12:52:24;93735.47;;;11.85;47.90
11053;BME280;55230;42.602;23.470;2024-03-17T12:57:49;93725.06;;;12.57;48.10
11053;BME280;55230;42.602;23.470;2024-03-17T13:00:34;93736.66;;;13.19;48.41
11053;BME280;55230;42.602;23.470;2024-03-17T13:03:08;93729.25;;;12.65;47.28
11053;BME280;55230;42.602;23.470;2024-03-17T13:05:37;93726.09;;;12.79;47.05
11053;BME280;55230;42.602;23.470;2024-03-17T13:08:03;93718.88;;;12.65;46.94
11053;BME280;55230;42.602;23.470;2024-03-17T13:10:30;93723.63;;;12.59;49.21
11053;BME280;55230;42.602;23.470;2024-03-17T13:13:05;93723.50;;;12.79;48.01
11053;BME280;55230;42.602;23.470;2024-03-17T13:15:32;93727.31;;;12.58;46.65
11053;BME280;55230;42.602;23.470;2024-03-17T13:17:58;93715.66;;;13.02;47.87